Latest Weather Observations for Mackay Racecourse

IDQ60801

Issued at 8:32 pm EST Thursday 25 May 2017 (issued every 30 minutes, with the page automatically refreshed every 10 minutes)

About weather observations | Map of weather stations | Latest weather observations for QLD | Other Formats
Station Details ID: 033329 Name: OORALEA RACECOURSE (MACKAY TURF CLUB) Lat: -21.17 Lon: 149.15 Height: 10.31 m
Data from the previous 72 hours. | See also: Recent months for locations in Queensland
Date/Time
EST
Temp
°C
App
Temp
°C
Dew
Point
°C
Rel
Hum
%
Delta-T
°C
Wind Press
QNH
hPa
Press
MSL
hPa
Rain since
9am
mm
Dir  Spd
km/h
Gust
km/h
Spd
kts
Gust
kts
25/08:30pm 16.4 18.4 16.1 98 0.2 CALM 0 0 0 0 - - 0.0
25/08:00pm 17.3 19.6 16.7 96 0.4 CALM 0 0 0 0 - - 0.0
25/07:30pm 17.8 20.1 16.7 93 0.7 CALM 0 0 0 0 - - 0.0
25/07:00pm 19.0 21.4 17.1 89 1.2 CALM 0 0 0 0 - - 0.0
25/06:30pm 21.1 23.9 17.9 82 2.0 CALM 0 0 0 0 - - 0.0
25/06:00pm 22.3 24.5 18.3 78 2.5 ENE 4 7 2 4 - - 0.0
25/05:30pm 23.0 24.9 17.7 72 3.3 ENE 4 6 2 3 - - 0.0
25/05:00pm 24.0 24.6 16.8 64 4.4 ENE 9 15 5 8 - - 0.0
25/04:30pm 25.0 25.8 17.2 62 4.8 E 9 15 5 8 - - 0.0
25/04:00pm 25.2 25.3 16.6 59 5.3 E 11 15 6 8 - - 0.0
25/03:30pm 25.5 25.6 16.6 58 5.5 E 11 17 6 9 - - 0.0
25/03:00pm 25.4 26.0 17.8 62 4.8 E 11 19 6 10 - - 0.0
25/02:30pm 25.9 26.8 18.3 63 4.8 E 11 17 6 9 - - 0.0
25/02:00pm 25.8 27.1 18.5 64 4.6 E 9 15 5 8 - - 0.0
25/01:30pm 25.3 25.4 17.5 62 4.9 E 13 17 7 9 - - 0.0
25/01:00pm 25.9 26.7 18.1 62 4.9 E 11 17 6 9 - - 0.0
25/12:30pm 25.2 25.1 16.9 60 5.1 E 13 19 7 10 - - 0.0
25/12:00pm 25.3 24.7 15.6 55 5.9 E 13 19 7 10 - - 0.0
25/11:30am 25.4 25.3 16.0 56 5.7 E 11 19 6 10 - - 0.0
25/11:00am 25.8 26.6 16.4 56 5.8 SE 7 13 4 7 - - 0.0
25/10:30am 24.9 26.1 15.8 57 5.5 SE 4 11 2 6 - - 0.0
25/10:00am 23.4 25.3 16.7 66 4.1 SE 2 6 1 3 - - 0.0
25/09:30am 21.5 23.0 17.7 79 2.3 SE 6 7 3 4 - - 0.0
25/09:00am 19.9 21.7 17.3 85 1.6 SE 4 6 2 3 - - 0.0
25/08:30am 18.3 19.4 16.5 89 1.1 SE 6 9 3 5 - - 0.0
25/08:00am 16.7 17.4 15.7 94 0.6 SE 6 9 3 5 - - 0.0
25/07:30am 15.0 15.7 14.5 97 0.3 SE 4 7 2 4 - - 0.0
25/07:00am 13.9 13.9 13.7 99 0.1 SE 6 7 3 4 - - 0.0
25/06:30am 13.6 13.5 13.4 99 0.1 SE 6 9 3 5 - - 0.0
25/06:00am 13.7 13.7 13.7 100 0.0 SE 6 9 3 5 - - 0.0
25/05:30am 13.5 13.5 13.5 100 0.0 SE 6 9 3 5 - - 0.0
25/05:00am 13.5 13.8 13.5 100 0.0 SE 4 7 2 4 - - 0.0
25/04:30am 13.4 13.3 13.4 100 0.0 SE 6 7 3 4 - - 0.0
25/04:00am 13.4 14.5 13.4 100 0.0 CALM 0 0 0 0 - - 0.0
25/03:30am 13.6 14.7 13.4 99 0.1 CALM 0 0 0 0 - - 0.0
25/03:00am 13.8 14.9 13.6 99 0.1 CALM 0 0 0 0 - - 0.0
25/02:30am 14.1 14.6 13.9 99 0.1 SE 4 4 2 2 - - 0.0
25/02:00am 14.2 14.7 13.9 98 0.2 SE 4 6 2 3 - - 0.0
25/01:30am 14.5 15.4 14.0 97 0.3 SE 2 6 1 3 - - 0.0
25/01:00am 15.0 15.1 14.4 96 0.3 SE 7 9 4 5 - - 0.0
25/12:30am 15.4 15.9 14.9 97 0.3 SE 6 9 3 5 - - 0.0
25/12:00am 15.5 16.6 14.7 95 0.5 SE 2 7 1 4 - - 0.0
 
Date/Time
EST
Temp
°C
App
Temp
°C
Dew
Point
°C
Rel
Hum
%
Delta-T
°C
Wind Press
QNH
hPa
Press
MSL
hPa
Rain since
9am
mm
Dir  Spd
km/h
Gust
km/h
Spd
kts
Gust
kts
24/11:30pm 16.0 16.9 15.2 95 0.5 SE 4 7 2 4 - - 0.0
24/11:00pm 15.9 16.9 15.3 96 0.3 SE 4 6 2 3 - - 0.0
24/10:30pm 16.1 17.5 15.5 96 0.3 SE 2 6 1 3 - - 0.0
24/10:00pm 16.1 17.8 15.3 95 0.5 CALM 0 0 0 0 - - 0.0
24/09:30pm 16.6 18.0 15.5 93 0.6 SE 2 4 1 2 - - 0.0
24/09:00pm 17.6 19.0 16.3 92 0.8 SE 4 6 2 3 - - 0.0
24/08:30pm 18.1 19.6 16.6 91 0.9 SE 4 6 2 3 - - 0.0
24/08:00pm 18.0 19.6 16.9 93 0.7 SE 4 4 2 2 - - 0.0
24/07:30pm 18.3 19.4 16.6 90 1.0 SE 6 7 3 4 - - 0.0
24/07:00pm 20.2 22.4 16.4 79 2.3 CALM 0 0 0 0 - - 0.0
24/06:30pm 21.5 22.9 17.3 77 2.6 SE 6 7 3 4 - - 0.0
24/06:00pm 22.0 23.1 17.2 74 2.9 SE 7 11 4 6 - - 0.0
24/05:30pm 22.6 23.6 16.9 70 3.5 SE 7 13 4 7 - - 0.0
24/05:00pm 23.5 24.1 16.8 66 4.1 SE 9 15 5 8 - - 0.0
24/04:30pm 24.2 24.4 16.7 63 4.6 SE 11 19 6 10 - - 0.0
24/04:00pm 24.5 24.3 16.7 61 4.8 SE 13 19 7 10 - - 0.0
24/03:30pm 25.1 25.1 17.1 61 5.0 ESE 13 20 7 11 - - 0.0
24/03:00pm 25.3 24.9 17.2 61 5.0 E 15 20 8 11 - - 0.0
24/02:30pm 25.5 24.7 17.2 60 5.2 ESE 17 22 9 12 - - 0.0
24/02:00pm 25.7 24.6 15.4 53 6.2 ESE 15 22 8 12 - - 0.0
24/01:30pm 25.9 25.4 15.9 54 6.1 SE 13 20 7 11 - - 0.0
24/01:00pm 25.7 25.2 16.8 58 5.5 ESE 15 20 8 11 - - 0.0
24/12:30pm 26.1 26.2 17.5 59 5.4 ESE 13 19 7 10 - - 0.0
24/12:00pm 25.7 25.3 16.3 56 5.8 SE 13 22 7 12 - - 0.0
24/11:30am 25.5 26.1 17.7 62 4.9 SE 11 19 6 10 - - 0.0
24/11:00am 25.3 25.9 18.7 67 4.2 SE 13 20 7 11 - - 0.0
24/10:30am 24.7 26.4 19.3 72 3.5 SE 9 19 5 10 - - 0.0
24/10:00am 24.1 25.9 19.6 76 2.9 SSE 9 17 5 9 - - 0.0
24/09:30am 23.2 24.7 19.8 81 2.2 S 11 17 6 9 - - 0.0
24/09:00am 22.4 24.6 20.5 89 1.2 SSE 9 13 5 7 - - 0.0
24/08:30am 19.8 22.0 19.3 97 0.3 SE 6 7 3 4 - - 0.0
24/08:00am 18.3 20.9 18.3 100 0.0 SE 2 6 1 3 - - 0.0
24/07:30am 16.7 18.2 16.7 100 0.0 SE 4 6 2 3 - - 0.0
24/07:00am 15.5 16.9 15.5 100 0.0 SE 2 4 1 2 - - 0.0
24/06:30am 15.2 16.1 15.2 100 0.0 SE 4 6 2 3 - - 0.0
24/06:00am 15.1 16.0 15.1 100 0.0 SE 4 6 2 3 - - 0.0
24/05:30am 15.6 17.4 15.6 100 0.0 CALM 0 0 0 0 - - 0.0
24/05:00am 15.7 17.2 15.7 100 0.0 SE 2 6 1 3 - - 0.0
24/04:30am 15.6 16.3 15.6 100 0.0 SE 6 6 3 3 - - 0.0
24/04:00am 15.8 17.7 15.8 100 0.0 CALM 0 0 0 0 - - 0.0
24/03:30am 16.0 17.2 16.0 100 0.0 SE 4 6 2 3 - - 0.0
24/03:00am 16.4 17.4 16.4 100 0.0 SE 6 6 3 3 - - 0.0
24/02:30am 16.7 18.2 16.7 100 0.0 SE 4 4 2 2 - - 0.0
24/02:00am 17.6 20.2 17.6 100 0.0 CALM 0 0 0 0 - - 0.0
24/01:30am 18.3 20.5 18.3 100 0.0 SE 4 6 2 3 - - 0.0
24/01:00am 18.0 19.7 18.0 100 0.0 SE 6 7 3 4 - - 0.0
24/12:30am 18.3 21.2 18.1 99 0.1 CALM 0 0 0 0 - - 0.0
24/12:00am 18.4 21.3 18.1 98 0.2 CALM 0 0 0 0 - - 0.0
 
Date/Time
EST
Temp
°C
App
Temp
°C
Dew
Point
°C
Rel
Hum
%
Delta-T
°C
Wind Press
QNH
hPa
Press
MSL
hPa
Rain since
9am
mm
Dir  Spd
km/h
Gust
km/h
Spd
kts
Gust
kts
23/11:30pm 19.0 21.6 18.5 97 0.3 SE 2 4 1 2 - - 0.0
23/11:00pm 18.9 21.1 18.4 97 0.3 SE 4 6 2 3 - - 0.0
23/10:30pm 19.3 22.4 18.6 96 0.4 CALM 0 0 0 0 - - 0.0
23/10:00pm 19.3 21.6 18.5 95 0.5 SE 4 6 2 3 - - 0.0
23/09:30pm 19.5 21.9 18.7 95 0.5 SE 4 6 2 3 - - 0.0
23/09:00pm 19.8 22.6 18.8 94 0.6 SE 2 6 1 3 - - 0.0
23/08:30pm 20.3 22.8 19.1 93 0.8 SE 4 7 2 4 - - 0.0
23/08:00pm 20.7 23.0 19.4 92 0.8 SE 6 7 3 4 - - 0.0
23/07:30pm 21.0 23.7 19.5 91 1.0 SE 4 7 2 4 - - 0.0
23/07:00pm 21.5 24.4 19.8 90 1.1 SE 4 6 2 3 - - 0.0
23/06:30pm 21.9 24.4 19.8 88 1.3 SE 6 9 3 5 - - 0.0
23/06:00pm 22.6 24.9 19.9 85 1.7 SE 7 13 4 7 - - 0.0
23/05:30pm 23.1 24.8 20.1 83 1.9 SE 11 17 6 9 - - 0.0
23/05:00pm 23.7 24.9 19.8 79 2.5 SE 13 19 7 10 - - 0.0
23/04:30pm 23.9 24.3 19.8 78 2.6 SE 17 24 9 13 - - 0.0
23/04:00pm 24.1 24.5 19.8 77 2.8 SE 17 26 9 14 - - 0.0
23/03:30pm 24.5 24.4 19.6 74 3.2 SE 19 30 10 16 - - 0.0
23/03:00pm 24.6 24.1 19.2 72 3.5 SE 20 32 11 17 - - 0.0
23/02:30pm 24.9 24.6 19.5 72 3.5 SE 20 32 11 17 - - 0.0
23/02:00pm 25.1 25.0 19.9 73 3.4 SE 20 28 11 15 - - 0.0
23/01:30pm 25.6 25.6 20.2 72 3.5 SE 20 30 11 16 - - 0.0
23/01:00pm 25.3 25.1 19.7 71 3.6 SE 20 30 11 16 - - 0.0
23/12:30pm 25.4 25.7 20.4 74 3.3 SE 19 30 10 16 - - 0.0
23/12:00pm 25.5 25.7 20.1 72 3.5 SE 19 32 10 17 - - 0.0
23/11:30am 25.6 25.6 20.2 72 3.5 ESE 20 30 11 16 - - 0.0
23/11:00am 25.7 25.9 20.5 73 3.4 SE 20 32 11 17 - - 0.0
23/10:30am 25.2 25.5 20.5 75 3.1 SE 19 26 10 14 - - 0.0
23/10:00am 25.0 25.2 20.5 76 2.9 SE 20 32 11 17 - - 0.0
23/09:30am 24.3 25.7 21.0 82 2.2 SE 15 22 8 12 - - 0.0
23/09:00am 23.6 24.4 20.7 84 1.9 SSE 17 24 9 13 - - 0.2
23/08:30am 22.6 23.6 20.3 87 1.5 SSE 15 22 8 12 - - 0.2
23/08:00am 22.3 24.2 20.6 90 1.1 SSE 11 19 6 10 - - 0.2
23/07:30am 21.2 22.8 20.0 93 0.8 SSE 11 17 6 9 - - 0.2
23/07:00am 20.8 22.7 19.8 94 0.6 SSE 9 13 5 7 - - 0.2
23/06:30am 20.9 22.1 19.9 94 0.6 SSE 13 20 7 11 - - 0.2
23/06:00am 20.8 22.0 19.8 94 0.6 SSE 13 19 7 10 - - 0.2
23/05:30am 20.8 22.4 20.0 95 0.5 SSE 11 17 6 9 - - 0.2
23/05:00am 20.8 22.4 20.0 95 0.5 SSE 11 17 6 9 - - 0.0
23/04:30am 20.8 22.4 20.0 95 0.5 SSE 11 17 6 9 - - 0.0
23/04:00am 20.8 22.4 20.0 95 0.5 SSE 11 17 6 9 - - 0.0
23/03:30am 21.1 23.3 20.4 96 0.5 SSE 9 15 5 8 - - 0.0
23/03:00am 21.4 22.6 20.6 95 0.5 SSE 15 22 8 12 - - 0.0
23/02:30am 21.4 23.4 20.7 96 0.5 SSE 11 15 6 8 - - 0.0
23/02:00am 21.2 23.8 20.5 96 0.5 SSE 7 13 4 7 - - 0.0
23/01:30am 21.4 23.7 20.6 95 0.5 SSE 9 11 5 6 - - 0.0
23/01:00am 21.7 24.0 20.7 94 0.6 SSE 9 13 5 7 - - 0.0
23/12:30am 22.1 23.8 20.9 93 0.8 SSE 13 17 7 9 - - 0.0
23/12:00am 22.4 24.5 21.0 92 0.9 SSE 11 20 6 11 - - 0.0
 
Date/Time
EST
Temp
°C
App
Temp
°C
Dew
Point
°C
Rel
Hum
%
Delta-T
°C
Wind Press
QNH
hPa
Press
MSL
hPa
Rain since
9am
mm
Dir  Spd
km/h
Gust
km/h
Spd
kts
Gust
kts
22/11:30pm 22.5 24.7 21.1 92 0.9 SSE 11 19 6 10 - - 0.0
22/11:00pm 23.2 25.0 21.1 88 1.4 SSE 13 22 7 12 - - 0.0
22/10:30pm 23.1 24.6 21.2 89 1.2 SE 15 26 8 14 - - 0.0
22/10:00pm 22.9 24.6 21.0 89 1.2 SSE 13 20 7 11 - - 0.0
22/09:30pm 23.1 24.6 21.2 89 1.2 SE 15 22 8 12 - - 0.0
22/09:00pm 23.1 24.2 21.2 89 1.2 SE 17 28 9 15 - - 0.0

Other Formats:

Comma delimited format used in spreadsheet applications
http://www.bom.gov.au/fwo/IDQ60801/IDQ60801.94352.axf

JavaScript Object Notation format (JSON) in row-major order
http://www.bom.gov.au/fwo/IDQ60801/IDQ60801.94352.json